Arjay, Kentucky
Current Conditions -  °F | °C
As of 4:15 AM on Thursday 23 Oct 2014 (Local Time) from K1A6 Reporting Station
Overcast Overcast  
Wind Chill: 48°   Ceiling: 2600
Heat Index: 48°   Visibility: 10mi
Dew Point: 41°   Wind: 3mph
Humidity: 77%   Direction: 30°NNE
Pressure: 30.21"   Gusts: NA
Location:  36.8°N, 83.65°W
Report Text: K1A6 230815Z AUTO 03003KT 10SM OVC026 09/05 A3021 RMK AO2 T00890050
Loading
Personal Weather Stations






























Interactive Weather Map
Tropical Storm Tracking
New forecast layout! Learn more

10-Day Weather Forecast

Advertisements
Track Severe Weather on mobile